createdAt,value
2019-02-05T00:00:43.684Z,9.83
2019-02-05T00:03:14.738Z,11.40
2019-02-05T00:05:43.836Z,12.53
2019-02-05T00:08:12.779Z,10.10
2019-02-05T00:10:41.746Z,11.60
2019-02-05T00:13:10.771Z,10.80
2019-02-05T00:15:39.890Z,8.73
2019-02-05T00:18:08.942Z,10.20
2019-02-05T00:20:37.900Z,9.60
2019-02-05T00:23:06.868Z,9.20
2019-02-05T00:25:35.692Z,9.93
2019-02-05T00:28:04.640Z,8.78
2019-02-05T00:30:33.611Z,11.60
2019-02-05T00:33:02.602Z,13.68
2019-02-05T00:35:31.496Z,13.20
2019-02-05T00:38:00.412Z,8.35
2019-02-05T00:40:29.354Z,8.55
2019-02-05T00:42:58.429Z,10.60
2019-02-05T00:45:27.394Z,13.75
2019-02-05T00:47:56.394Z,12.98
2019-02-05T00:50:25.403Z,10.03
2019-02-05T00:52:54.383Z,9.40
2019-02-05T00:55:23.350Z,11.22
2019-02-05T00:57:52.288Z,10.10
2019-02-05T01:00:23.888Z,9.10
2019-02-05T01:02:53.207Z,10.40
2019-02-05T01:05:22.410Z,8.23
2019-02-05T01:07:51.482Z,7.55
2019-02-05T01:10:21.712Z,10.55
2019-02-05T01:12:50.802Z,9.93
2019-02-05T01:15:20.263Z,8.43
2019-02-05T01:17:49.507Z,9.20
2019-02-05T01:20:18.705Z,7.80
2019-02-05T01:22:47.844Z,9.05
2019-02-05T01:25:18.056Z,14.25
2019-02-05T01:27:47.563Z,11.60
2019-02-05T01:30:21.614Z,8.13
2019-02-05T01:32:50.847Z,7.15
2019-02-05T01:35:20.041Z,7.37
2019-02-05T01:37:49.195Z,8.80
2019-02-05T01:40:19.567Z,7.65
2019-02-05T01:42:48.673Z,10.20
2019-02-05T01:45:18.831Z,7.70
2019-02-05T01:47:47.846Z,8.65
2019-02-05T01:50:19.419Z,7.10
2019-02-05T01:52:48.371Z,8.40
2019-02-05T01:55:17.352Z,7.47
2019-02-05T01:57:46.483Z,9.35
2019-02-05T02:00:18.380Z,12.47
2019-02-05T02:02:47.300Z,12.28
2019-02-05T02:05:16.368Z,6.30
2019-02-05T02:07:45.293Z,9.65
2019-02-05T02:10:17.287Z,8.25
2019-02-05T02:12:46.591Z,9.55
2019-02-05T02:15:15.772Z,6.83
2019-02-05T02:17:44.859Z,8.78
2019-02-05T02:20:15.721Z,7.95
2019-02-05T02:22:44.928Z,7.70
2019-02-05T02:25:14.483Z,9.10
2019-02-05T02:27:43.533Z,11.35
2019-02-05T02:30:16.179Z,7.92
2019-02-05T02:32:45.244Z,7.03
2019-02-05T02:35:14.416Z,8.80
2019-02-05T02:37:43.451Z,11.95
2019-02-05T02:40:12.738Z,7.83
2019-02-05T02:42:41.729Z,7.23
2019-02-05T02:45:11.953Z,7.67
2019-02-05T02:47:41.209Z,10.55
2019-02-05T02:50:11.922Z,7.78
2019-02-05T02:52:40.795Z,7.05
2019-02-05T02:55:10.249Z,14.20
2019-02-05T02:57:39.310Z,5.80
2019-02-05T03:00:11.104Z,6.28
2019-02-05T03:02:40.389Z,7.90
2019-02-05T03:05:11.721Z,6.72
2019-02-05T03:07:40.732Z,6.37
2019-02-05T03:10:19.076Z,9.45
2019-02-05T03:12:48.143Z,7.30
2019-02-05T03:15:17.494Z,7.25
2019-02-05T03:17:46.565Z,12.15
2019-02-05T03:20:15.996Z,8.48
2019-02-05T03:22:45.607Z,7.20
2019-02-05T03:25:16.860Z,6.70
2019-02-05T03:27:45.907Z,7.83
2019-02-05T03:30:19.755Z,5.57
2019-02-05T03:32:48.811Z,7.50
2019-02-05T03:35:17.910Z,17.03
2019-02-05T03:37:46.827Z,7.00
2019-02-05T03:40:57.448Z,7.80
2019-02-05T03:43:26.288Z,7.47
2019-02-05T03:45:58.198Z,9.03
2019-02-05T03:48:27.723Z,6.13
2019-02-05T03:51:06.218Z,7.03
2019-02-05T03:53:38.502Z,6.17
2019-02-05T03:56:21.470Z,8.73
2019-02-05T03:59:19.965Z,9.10
2019-02-05T04:02:42.539Z,8.10
2019-02-05T04:05:40.518Z,8.50
2019-02-05T04:08:57.154Z,5.43
2019-02-05T04:12:10.470Z,7.33
2019-02-05T04:14:56.929Z,6.47
2019-02-05T04:17:42.372Z,9.03
2019-02-05T04:21:13.339Z,9.93
2019-02-05T04:24:05.838Z,6.08
2019-02-05T04:27:04.731Z,9.03
2019-02-05T04:29:43.362Z,6.27
2019-02-05T04:32:47.264Z,8.77
2019-02-05T04:35:48.672Z,8.83
2019-02-05T04:38:42.252Z,6.70
2019-02-05T04:41:28.810Z,9.40
2019-02-05T04:44:22.732Z,9.58
2019-02-05T04:47:01.167Z,6.22
2019-02-05T04:50:23.256Z,6.95
2019-02-05T04:53:22.739Z,8.50
2019-02-05T04:56:27.799Z,7.90
2019-02-05T04:59:45.438Z,8.40
2019-02-05T05:03:16.597Z,8.93
2019-02-05T05:06:27.129Z,8.30
2019-02-05T05:09:23.502Z,12.90
2019-02-05T05:11:52.462Z,10.90
2019-02-05T05:14:21.433Z,9.03
2019-02-05T05:16:50.338Z,11.47
2019-02-05T05:19:19.689Z,8.13
2019-02-05T05:21:48.783Z,7.72
2019-02-05T05:24:18.136Z,8.60
2019-02-05T05:26:47.312Z,8.18
2019-02-05T05:29:16.402Z,8.90
2019-02-05T05:31:45.423Z,10.13
2019-02-05T05:34:14.506Z,9.17
2019-02-05T05:36:51.140Z,7.27
2019-02-05T05:39:20.608Z,8.90
2019-02-05T05:41:49.654Z,6.77
2019-02-05T05:44:18.478Z,7.85
2019-02-05T05:46:47.492Z,8.90
2019-02-05T05:49:16.488Z,9.90
2019-02-05T05:51:45.611Z,8.10
2019-02-05T05:54:14.597Z,6.53
2019-02-05T05:56:44.596Z,11.10
2019-02-05T05:59:13.547Z,6.73
2019-02-05T06:01:42.563Z,9.10
2019-02-05T06:04:11.542Z,8.20
2019-02-05T06:06:40.872Z,9.50
2019-02-05T06:09:10.103Z,9.40
2019-02-05T06:11:39.170Z,9.33
2019-02-05T06:14:08.259Z,9.37
2019-02-05T06:16:37.239Z,8.20
2019-02-05T06:19:06.171Z,6.80
2019-02-05T06:21:35.076Z,10.40
2019-02-05T06:24:04.865Z,8.83
2019-02-05T06:26:33.945Z,8.73
2019-02-05T06:29:02.973Z,9.23
2019-02-05T06:31:31.901Z,6.53
2019-02-05T06:34:00.806Z,7.23
2019-02-05T06:36:29.787Z,10.93
2019-02-05T06:38:58.817Z,7.60
2019-02-05T06:41:27.790Z,7.93
2019-02-05T06:43:57.956Z,7.27
2019-02-05T06:46:26.958Z,6.73
2019-02-05T06:48:55.961Z,9.50
2019-02-05T06:51:25.007Z,8.57
2019-02-05T06:53:54.318Z,7.43
2019-02-05T06:56:23.458Z,8.17
2019-02-05T06:58:52.369Z,8.00
2019-02-05T07:01:21.399Z,8.27
2019-02-05T07:03:50.451Z,14.93
2019-02-05T07:06:19.401Z,7.60
2019-02-05T07:08:48.437Z,9.00
2019-02-05T07:11:17.369Z,10.90
2019-02-05T07:13:46.365Z,11.73
2019-02-05T07:16:15.383Z,6.23
2019-02-05T07:18:44.465Z,7.83
2019-02-05T07:21:13.468Z,8.18
2019-02-05T07:23:42.346Z,12.30
2019-02-05T07:26:11.485Z,8.63
2019-02-05T07:28:40.650Z,10.47
2019-02-05T07:31:09.725Z,14.43
2019-02-05T07:33:38.736Z,9.07
2019-02-05T07:36:07.828Z,9.85
2019-02-05T07:38:36.861Z,10.40
2019-02-05T07:41:05.821Z,10.80
2019-02-05T07:43:34.733Z,10.30
2019-02-05T07:46:03.930Z,11.13
2019-02-05T07:48:33.768Z,14.83
2019-02-05T07:51:02.724Z,10.27
2019-02-05T07:53:33.279Z,8.63
2019-02-05T07:56:02.301Z,13.13
2019-02-05T07:58:31.199Z,13.50
2019-02-05T08:01:00.198Z,8.93
2019-02-05T08:03:29.181Z,11.13
2019-02-05T08:05:58.211Z,9.80
2019-02-05T08:08:27.107Z,9.33
2019-02-05T08:10:56.105Z,9.87
2019-02-05T08:13:25.508Z,10.87
2019-02-05T08:16:23.071Z,10.13
2019-02-05T08:19:24.390Z,11.23
2019-02-05T08:25:43.280Z,13.20
2019-02-05T08:28:12.478Z,9.33
2019-02-05T08:30:44.064Z,11.40
2019-02-05T08:33:13.146Z,12.90
2019-02-05T08:35:42.360Z,11.50
2019-02-05T08:38:11.463Z,11.73
2019-02-05T08:40:40.542Z,12.90
2019-02-05T08:43:09.503Z,13.00
2019-02-05T08:45:38.571Z,12.30
2019-02-05T08:48:08.450Z,14.13
2019-02-05T08:50:37.899Z,11.27
2019-02-05T08:53:07.080Z,13.13
2019-02-05T08:55:36.144Z,14.17
2019-02-05T08:58:07.358Z,13.33
2019-02-05T09:00:37.656Z,13.87
2019-02-05T09:03:09.512Z,18.47
2019-02-05T09:05:38.818Z,19.00
2019-02-05T09:08:08.044Z,11.00
2019-02-05T09:10:37.403Z,13.57
2019-02-05T09:13:06.417Z,13.97
2019-02-05T09:15:35.336Z,16.00
2019-02-05T09:18:04.670Z,11.30
2019-02-05T09:20:33.691Z,12.10
2019-02-05T09:23:02.784Z,14.83
2019-02-05T09:25:31.844Z,12.80
2019-02-05T09:28:00.884Z,13.10
2019-02-05T09:30:31.782Z,11.80
2019-02-05T09:33:02.922Z,16.43
2019-02-05T09:35:34.586Z,14.47
2019-02-05T09:38:03.742Z,15.03
2019-02-05T09:40:33.490Z,15.90
2019-02-05T09:43:02.581Z,11.67
2019-02-05T09:45:32.726Z,14.90
2019-02-05T09:48:03.991Z,11.60
2019-02-05T09:50:44.262Z,12.83
2019-02-05T09:53:03.875Z,11.63
2019-02-05T09:55:35.860Z,14.23
2019-02-05T09:58:03.384Z,13.50
2019-02-05T10:00:34.854Z,9.70
2019-02-05T10:03:04.365Z,13.03
2019-02-05T10:05:33.597Z,12.80
2019-02-05T10:08:02.586Z,10.70
2019-02-05T10:10:31.842Z,14.07
2019-02-05T10:13:01.050Z,12.53
2019-02-05T10:15:32.220Z,15.30
2019-02-05T10:18:01.582Z,13.87
2019-02-05T10:20:30.656Z,16.67
2019-02-05T10:23:02.356Z,16.20
2019-02-05T10:25:31.483Z,14.33
2019-02-05T10:28:00.337Z,14.30
2019-02-05T10:30:31.596Z,18.07
2019-02-05T10:33:02.362Z,14.40
2019-02-05T10:35:31.366Z,20.43
2019-02-05T10:38:00.535Z,24.30
2019-02-05T10:40:29.744Z,13.73
2019-02-05T10:42:58.865Z,15.17
2019-02-05T10:45:28.579Z,12.80
2019-02-05T10:47:57.726Z,17.17
2019-02-05T10:50:27.038Z,14.53
2019-02-05T10:52:56.014Z,14.10
2019-02-05T10:55:25.184Z,17.43
2019-02-05T10:57:54.312Z,16.77
2019-02-05T11:00:26.052Z,16.50
2019-02-05T11:02:55.731Z,14.00
2019-02-05T11:05:26.889Z,14.50
2019-02-05T11:07:55.829Z,15.27
2019-02-05T11:10:24.808Z,16.60
2019-02-05T11:12:53.906Z,14.07
2019-02-05T11:15:25.038Z,16.83
2019-02-05T11:17:54.093Z,14.83
2019-02-05T11:20:24.403Z,15.10
2019-02-05T11:22:53.615Z,16.83
2019-02-05T11:25:22.783Z,12.47
2019-02-05T11:27:51.845Z,15.53
2019-02-05T11:30:35.179Z,13.50
2019-02-05T11:33:04.229Z,10.93
2019-02-05T11:35:33.463Z,13.47
2019-02-05T11:38:02.562Z,16.37
2019-02-05T11:40:32.954Z,15.83
2019-02-05T11:43:02.075Z,16.57
2019-02-05T11:45:31.423Z,14.17
2019-02-05T11:48:00.999Z,15.10
2019-02-05T11:50:30.021Z,13.60
2019-02-05T11:52:59.090Z,14.50
2019-02-05T11:55:29.193Z,14.70
2019-02-05T11:57:58.263Z,14.17
2019-02-05T12:00:44.707Z,17.57
2019-02-05T12:03:14.451Z,16.13
2019-02-05T12:05:43.505Z,15.10
2019-02-05T12:08:12.377Z,15.27
2019-02-05T12:10:41.397Z,14.90
2019-02-05T12:13:10.322Z,18.13
2019-02-05T12:15:39.350Z,15.40
2019-02-05T12:18:08.451Z,16.17
2019-02-05T12:20:37.549Z,16.00
2019-02-05T12:23:06.768Z,13.90
2019-02-05T12:25:35.953Z,14.53
2019-02-05T12:28:05.799Z,13.80
2019-02-05T12:30:44.254Z,15.00
2019-02-05T12:33:06.836Z,17.60
2019-02-05T12:35:35.989Z,16.07
2019-02-05T12:38:06.015Z,17.33
2019-02-05T12:40:35.281Z,16.17
2019-02-05T12:43:04.737Z,16.73
2019-02-05T12:45:33.855Z,15.23
2019-02-05T12:48:02.838Z,16.93
2019-02-05T12:50:33.339Z,16.83
2019-02-05T12:53:02.711Z,13.00
2019-02-05T12:55:31.705Z,14.77
2019-02-05T12:58:00.996Z,14.87
2019-02-05T13:00:38.610Z,15.83
2019-02-05T13:03:08.509Z,13.87
2019-02-05T13:05:38.026Z,15.30
2019-02-05T13:08:07.416Z,15.87
2019-02-05T13:10:38.817Z,14.70
2019-02-05T13:13:08.642Z,16.80
2019-02-05T13:15:37.690Z,17.23
2019-02-05T13:18:07.566Z,14.07
2019-02-05T13:20:37.078Z,21.57
2019-02-05T13:23:07.075Z,18.00
2019-02-05T13:25:36.345Z,17.80
2019-02-05T13:28:07.107Z,16.60
2019-02-05T13:30:36.261Z,17.20
2019-02-05T13:33:06.326Z,15.30
2019-02-05T13:35:35.574Z,16.83
2019-02-05T13:38:05.940Z,16.43
2019-02-05T13:40:34.942Z,16.07
2019-02-05T13:43:04.510Z,23.80
2019-02-05T13:45:34.428Z,18.50
2019-02-05T13:48:04.162Z,15.23
2019-02-05T13:50:33.855Z,17.20
2019-02-05T13:53:03.335Z,17.87
2019-02-05T13:55:34.458Z,16.00
2019-02-05T13:58:03.741Z,18.57
2019-02-05T14:00:34.945Z,19.97
2019-02-05T14:03:04.366Z,24.70
2019-02-05T14:05:33.273Z,17.57
2019-02-05T14:08:02.271Z,22.10
2019-02-05T14:10:32.097Z,19.27
2019-02-05T14:13:01.034Z,18.30
2019-02-05T14:15:35.006Z,17.97
2019-02-05T14:18:04.650Z,16.03
2019-02-05T14:20:33.537Z,17.90
2019-02-05T14:23:02.493Z,19.93
2019-02-05T14:25:31.513Z,20.50
2019-02-05T14:28:00.569Z,17.10
2019-02-05T14:30:34.812Z,16.20
2019-02-05T14:33:04.249Z,16.27
2019-02-05T14:35:33.249Z,17.97
2019-02-05T14:38:02.293Z,18.93
2019-02-05T14:40:31.267Z,17.30
2019-02-05T14:43:00.190Z,16.73
2019-02-05T14:45:29.224Z,16.00
2019-02-05T14:47:58.441Z,16.33
2019-02-05T14:50:29.100Z,23.30
2019-02-05T14:52:58.976Z,18.10
2019-02-05T14:55:28.052Z,19.80
2019-02-05T14:57:57.128Z,19.03
2019-02-05T15:00:31.032Z,17.23
2019-02-05T15:03:02.209Z,20.70
2019-02-05T15:05:30.808Z,22.43
2019-02-05T15:07:59.733Z,20.67
2019-02-05T15:10:28.677Z,22.83
2019-02-05T15:12:57.704Z,16.47
2019-02-05T15:15:26.771Z,19.13
2019-02-05T15:17:55.699Z,19.43
2019-02-05T15:20:44.991Z,18.50
2019-02-05T15:23:14.198Z,19.73
2019-02-05T15:25:43.398Z,18.50
2019-02-05T15:28:12.712Z,18.97
2019-02-05T15:30:42.808Z,17.13
2019-02-05T15:33:28.790Z,17.77
2019-02-05T15:36:00.524Z,21.80
2019-02-05T15:38:29.906Z,17.93
2019-02-05T15:40:59.077Z,19.57
2019-02-05T15:43:28.014Z,16.30
2019-02-05T15:45:57.009Z,19.30
2019-02-05T15:48:26.144Z,19.03
2019-02-05T15:50:55.211Z,17.43
2019-02-05T15:53:24.592Z,21.27
2019-02-05T15:55:53.528Z,18.17
2019-02-05T15:58:22.454Z,19.30
2019-02-05T16:00:51.432Z,17.93
2019-02-05T16:03:20.544Z,18.63
2019-02-05T16:05:49.609Z,16.47
2019-02-05T16:08:18.744Z,21.13
2019-02-05T16:10:47.915Z,18.53
2019-02-05T16:13:16.937Z,25.83
2019-02-05T16:15:45.956Z,18.90
2019-02-05T16:18:14.892Z,18.93
2019-02-05T16:20:43.823Z,18.30
2019-02-05T16:23:12.765Z,20.83
2019-02-05T16:25:41.797Z,16.77
2019-02-05T16:28:10.853Z,20.70
2019-02-05T16:30:39.850Z,20.43
2019-02-05T16:33:08.886Z,24.73
2019-02-05T16:35:38.001Z,27.90
2019-02-05T16:38:07.126Z,20.40
2019-02-05T16:40:36.351Z,19.30
2019-02-05T16:43:05.690Z,22.30
2019-02-05T16:45:34.683Z,21.13
2019-02-05T16:48:03.631Z,23.43
2019-02-05T16:50:34.939Z,22.37
2019-02-05T16:53:04.855Z,20.37
2019-02-05T16:55:34.241Z,24.20
2019-02-05T16:58:03.437Z,27.27
2019-02-05T17:00:33.393Z,41.83
2019-02-05T17:03:02.495Z,117.33
2019-02-05T17:05:33.509Z,36.83
2019-02-05T17:08:02.531Z,21.80
2019-02-05T17:10:31.748Z,23.33
2019-02-05T17:13:00.798Z,18.93
2019-02-05T17:15:29.905Z,21.20
2019-02-05T17:17:58.934Z,20.20
2019-02-05T17:20:28.962Z,20.63
2019-02-05T17:23:00.479Z,18.87
2019-02-05T17:25:29.118Z,22.00
2019-02-05T17:27:59.183Z,18.03
2019-02-05T17:30:30.643Z,19.23
2019-02-05T17:32:59.573Z,20.83
2019-02-05T17:35:28.554Z,20.03
2019-02-05T17:37:57.614Z,16.87
2019-02-05T17:40:26.650Z,20.23
2019-02-05T17:42:55.559Z,18.17
2019-02-05T17:45:32.817Z,22.60
2019-02-05T17:48:03.695Z,17.00
2019-02-05T17:50:32.619Z,22.70
2019-02-05T17:53:01.857Z,21.20
2019-02-05T17:55:30.959Z,19.23
2019-02-05T17:57:59.950Z,19.00
2019-02-05T18:00:43.291Z,21.80
2019-02-05T18:03:12.276Z,23.67
2019-02-05T18:05:41.447Z,16.97
2019-02-05T18:08:10.460Z,27.23
2019-02-05T18:10:41.982Z,18.60
2019-02-05T18:13:10.280Z,16.97
2019-02-05T18:15:39.373Z,17.73
2019-02-05T18:18:08.331Z,21.20
2019-02-05T18:20:37.600Z,17.73
2019-02-05T18:23:06.719Z,16.70
2019-02-05T18:25:35.805Z,21.10
2019-02-05T18:28:05.360Z,19.60
2019-02-05T18:30:34.532Z,17.00
2019-02-05T18:33:05.868Z,21.70
2019-02-05T18:35:34.265Z,16.87
2019-02-05T18:38:03.259Z,16.30
2019-02-05T18:40:32.250Z,20.30
2019-02-05T18:43:01.244Z,18.97
2019-02-05T18:45:30.166Z,19.40
2019-02-05T18:47:59.070Z,17.27
2019-02-05T18:50:28.546Z,19.77
2019-02-05T18:52:57.649Z,17.97
2019-02-05T18:55:27.486Z,21.60
2019-02-05T18:58:08.240Z,16.87
2019-02-05T19:00:29.455Z,17.40
2019-02-05T19:02:58.629Z,20.27
2019-02-05T19:05:28.591Z,26.63
2019-02-05T19:07:57.610Z,19.80
2019-02-05T19:10:27.578Z,21.00
2019-02-05T19:12:56.644Z,21.67
2019-02-05T19:15:27.534Z,22.20
2019-02-05T19:17:56.488Z,22.90
2019-02-05T19:20:27.272Z,23.90
2019-02-05T19:22:56.283Z,22.43
2019-02-05T19:25:32.571Z,22.77
2019-02-05T19:28:01.600Z,18.20
2019-02-05T19:30:31.810Z,20.63
2019-02-05T19:33:01.084Z,23.30
2019-02-05T19:35:30.284Z,20.00
2019-02-05T19:37:59.404Z,21.23
2019-02-05T19:40:28.423Z,21.90
2019-02-05T19:42:57.593Z,18.47
2019-02-05T19:45:48.639Z,25.37
2019-02-05T19:48:26.283Z,22.83
2019-02-05T19:50:55.657Z,22.17
2019-02-05T19:53:26.042Z,23.97
2019-02-05T19:55:55.453Z,23.23
2019-02-05T19:58:24.444Z,17.57
2019-02-05T20:00:53.845Z,21.53
2019-02-05T20:03:22.730Z,23.27
2019-02-05T20:05:51.903Z,20.60
2019-02-05T20:08:20.948Z,22.00
2019-02-05T20:10:50.079Z,21.50
2019-02-05T20:13:19.045Z,20.67
2019-02-05T20:15:48.039Z,20.73
2019-02-05T20:18:18.331Z,19.40
2019-02-05T20:20:47.288Z,22.80
2019-02-05T20:23:16.279Z,23.23
2019-02-05T20:25:49.223Z,22.07
2019-02-05T20:28:18.357Z,22.77
2019-02-05T20:30:47.350Z,22.10
2019-02-05T20:33:16.476Z,21.67
2019-02-05T20:35:45.379Z,17.43
2019-02-05T20:38:26.133Z,19.70
2019-02-05T20:40:55.551Z,21.50
2019-02-05T20:43:24.649Z,24.50
2019-02-05T20:45:54.087Z,21.10
2019-02-05T20:48:29.958Z,20.57
2019-02-05T20:51:01.033Z,21.10
2019-02-05T20:53:29.612Z,21.57
2019-02-05T20:56:04.005Z,27.63
2019-02-05T20:58:32.898Z,18.40
2019-02-05T21:01:01.979Z,23.63
2019-02-05T21:03:30.940Z,22.53
2019-02-05T21:06:00.043Z,18.87
2019-02-05T21:08:28.961Z,21.53
2019-02-05T21:10:57.907Z,24.37
2019-02-05T21:13:26.818Z,22.20
2019-02-05T21:15:55.748Z,26.47
2019-02-05T21:18:24.897Z,24.70
2019-02-05T21:20:54.035Z,21.93
2019-02-05T21:23:23.031Z,19.30
2019-02-05T21:25:51.973Z,24.70
2019-02-05T21:28:20.935Z,23.10
2019-02-05T21:30:49.904Z,23.47
2019-02-05T21:33:19.153Z,24.60
2019-02-05T21:35:48.225Z,20.77
2019-02-05T21:38:17.219Z,19.30
2019-02-05T21:40:46.123Z,20.53
2019-02-05T21:43:15.755Z,26.30
2019-02-05T21:45:44.635Z,25.10
2019-02-05T21:48:13.613Z,21.60
2019-02-05T21:50:42.822Z,20.90
2019-02-05T21:53:11.849Z,21.83
2019-02-05T21:55:40.763Z,22.60
2019-02-05T21:58:12.443Z,26.40
2019-02-05T22:00:40.558Z,20.27
2019-02-05T22:03:09.449Z,19.80
2019-02-05T22:05:38.512Z,23.00
2019-02-05T22:08:08.824Z,20.30
2019-02-05T22:10:38.047Z,22.10
2019-02-05T22:13:07.365Z,23.40
2019-02-05T22:15:36.384Z,21.00
2019-02-05T22:18:05.547Z,26.10
2019-02-05T22:20:34.516Z,25.33
2019-02-05T22:23:03.567Z,21.70
2019-02-05T22:25:32.733Z,25.30
2019-02-05T22:28:02.852Z,21.77
2019-02-05T22:30:33.097Z,27.30
2019-02-05T22:33:02.308Z,20.70
2019-02-05T22:35:31.467Z,24.17
2019-02-05T22:38:00.570Z,21.90
2019-02-05T22:40:29.554Z,18.17
2019-02-05T22:42:58.698Z,22.13
2019-02-05T22:45:29.373Z,22.43
2019-02-05T22:47:58.484Z,25.00
2019-02-05T22:50:29.232Z,19.60
2019-02-05T22:52:58.488Z,22.10
2019-02-05T22:55:27.581Z,20.57
2019-02-05T22:57:56.680Z,22.13
2019-02-05T23:00:45.524Z,21.30
2019-02-05T23:03:14.756Z,21.20
2019-02-05T23:06:06.132Z,21.77
2019-02-05T23:08:35.022Z,22.90
2019-02-05T23:11:19.884Z,23.10
2019-02-05T23:13:48.843Z,20.23
2019-02-05T23:16:17.710Z,22.13
2019-02-05T23:18:46.623Z,21.40
2019-02-05T23:21:15.620Z,19.47
2019-02-05T23:23:44.514Z,19.07
2019-02-05T23:26:15.181Z,22.53
2019-02-05T23:28:44.284Z,18.03
2019-02-05T23:31:13.281Z,21.67
2019-02-05T23:33:44.609Z,17.90
2019-02-05T23:36:12.953Z,24.17
2019-02-05T23:38:42.437Z,21.13
2019-02-05T23:41:11.607Z,20.40
2019-02-05T23:43:40.623Z,22.00
2019-02-05T23:46:09.612Z,19.47
2019-02-05T23:48:38.568Z,19.63
2019-02-05T23:51:07.610Z,21.23
2019-02-05T23:53:36.570Z,18.83
2019-02-05T23:56:05.548Z,19.60
2019-02-05T23:58:34.494Z,18.77
